Time;durP1;ratioP1;P1;durP2;ratioP2;P2;SDS_P1;SDS_P2;PMS_P1;PMS_P2;Temp;Humidity;BMP_temperature;BMP_pressure;BME280_temperature;BME280_humidity;BME280_pressure;Samples;Min_cycle;Max_cycle;Signal;HPM_P1;HPM_P2
2022/10/09 00:00:11;;;;;;;;;;;;;;;;;;4937421;29;47213;-79
2022/10/09 00:02:38;;;;;;;;;;;;;;;;;;4931715;29;44984;-79
2022/10/09 00:05:05;;;;;;;;;;;;;;;;;;4936277;29;41674;-80
2022/10/09 00:07:32;;;;;;;;;;;;;;;;;;4934891;29;44952;-79
2022/10/09 00:09:59;;;;;;;;;;;;;;;;;;4935339;29;45735;-79
2022/10/09 00:12:26;;;;;;;;;;;;;;;;;;4934956;29;44351;-79
2022/10/09 00:14:53;;;;;;;;;;;;;;;;;;4935364;29;43431;-79
2022/10/09 00:17:20;;;;;;;;;;;;;;;;;;4935367;29;44868;-79
2022/10/09 00:19:47;;;;;;;;;;;;;;;;;;4934981;29;45848;-79
2022/10/09 00:22:14;;;;;;;;;;;;;;;;;;4933803;28;46103;-79
2022/10/09 00:24:41;;;;;;;;;;;;;;;;;;4934288;29;43625;-79
2022/10/09 00:27:08;;;;;;;;;;;;;;;;;;4933844;29;44970;-79
2022/10/09 00:29:35;;;;;;;;;;;;;;;;;;4932319;29;46005;-79
2022/10/09 00:32:01;;;;;;;;;;;;;;;;;;4934525;29;45324;-79
2022/10/09 00:34:28;;;;;;;;;;;;;;;;;;4932473;28;43706;-79
2022/10/09 00:36:55;;;;;;;;;;;;;;;;;;4934438;29;43544;-79
2022/10/09 00:39:22;;;;;;;;;;;;;;;;;;4933410;29;45568;-79
2022/10/09 00:41:49;;;;;;;;;;;;;;;;;;4934011;29;43805;-79
2022/10/09 00:44:16;;;;;;;;;;;;;;;;;;4934644;29;43586;-79
2022/10/09 00:46:43;;;;;;;;;;;;;;;;;;4933318;29;45853;-79
2022/10/09 00:49:10;;;;;;;;;;;;;;;;;;4933825;29;44013;-80
2022/10/09 00:51:37;;;;;;;;;;;;;;;;;;4932576;29;45371;-79
2022/10/09 00:54:04;;;;;;;;;;;;;;;;;;4932436;29;43584;-80
2022/10/09 00:56:31;;;;;;;;;;;;;;;;;;4932549;29;44857;-79
2022/10/09 00:58:58;;;;;;;;;;;;;;;;;;4932295;29;45816;-79
2022/10/09 01:01:25;;;;;;;;;;;;;;;;;;4933383;29;45303;-79
2022/10/09 01:03:52;;;;;;;;;;;;;;;;;;4931108;29;43250;-79
2022/10/09 01:06:19;;;;;;;;;;;;;;;;;;4931210;29;43908;-80
2022/10/09 01:08:46;;;;;;;;;;;;;;;;;;4932842;29;45688;-79
2022/10/09 01:11:13;;;;;;;;;;;;;;;;;;4932353;29;45125;-79
2022/10/09 01:13:40;;;;;;;;;;;;;;;;;;4932882;29;43685;-79
2022/10/09 01:16:06;;;;;;;;;;;;;;;;;;4932187;29;45081;-81
2022/10/09 01:18:33;;;;;;;;;;;;;;;;;;4932505;29;45645;-79
2022/10/09 01:21:00;;;;;;;;;;;;;;;;;;4932188;28;44993;-79
2022/10/09 01:23:27;;;;;;;;;;;;;;;;;;4932540;29;43673;-80
2022/10/09 01:25:54;;;;;;;;;;;;;;;;;;4932681;29;44611;-79
2022/10/09 01:28:21;;;;;;;;;;;;;;;;;;4931991;29;45734;-79
2022/10/09 01:30:48;;;;;;;;;;;;;;;;;;4932313;29;44752;-79
2022/10/09 01:33:15;;;;;;;;;;;;;;;;;;4931640;29;44179;-79
2022/10/09 01:35:42;;;;;;;;;;;;;;;;;;4930645;28;45789;-79
2022/10/09 01:38:09;;;;;;;;;;;;;;;;;;4932362;29;47102;-79
2022/10/09 01:40:39;;;;;;;;;;;;;;;;;;4931644;29;46130;-79
2022/10/09 01:43:06;;;;;;;;;;;;;;;;;;4932282;28;43451;-79
2022/10/09 01:45:33;;;;;;;;;;;;;;;;;;4932592;29;45900;-80
2022/10/09 01:48:00;;;;;;;;;;;;;;;;;;4934093;29;45971;-79
2022/10/09 01:50:27;;;;;;;;;;;;;;;;;;4932760;29;45017;-78
2022/10/09 01:52:54;;;;;;;;;;;;;;;;;;4934041;29;43806;-79
2022/10/09 01:55:21;;;;;;;;;;;;;;;;;;4932289;29;45114;-79
2022/10/09 01:57:48;;;;;;;;;;;;;;;;;;4931170;28;45129;-79
2022/10/09 02:00:15;;;;;;;;;;;;;;;;;;4933683;29;45344;-79
2022/10/09 02:02:42;;;;;;;;;;;;;;;;;;4933162;29;46002;-79
2022/10/09 02:05:09;;;;;;;;;;;;;;;;;;4931836;29;45239;-79
2022/10/09 02:07:36;;;;;;;;;;;;;;;;;;4933133;29;45828;-80
2022/10/09 02:10:03;;;;;;;;;;;;;;;;;;4932175;29;44993;-79
2022/10/09 02:12:30;;;;;;;;;;;;;;;;;;4933171;29;43584;-79
2022/10/09 02:14:56;;;;;;;;;;;;;;;;;;4932271;29;45843;-79
2022/10/09 02:17:23;;;;;;;;;;;;;;;;;;4931379;29;46592;-79
2022/10/09 02:19:51;;;;;;;;;;;;;;;;;;4931298;29;42715;-79
2022/10/09 02:22:18;;;;;;;;;;;;;;;;;;4931346;29;43286;-79
2022/10/09 02:24:44;;;;;;;;;;;;;;;;;;4931915;29;45885;-79
2022/10/09 02:27:11;;;;;;;;;;;;;;;;;;4930721;28;45821;-79
2022/10/09 02:29:38;;;;;;;;;;;;;;;;;;4932402;29;45108;-79
2022/10/09 02:32:05;;;;;;;;;;;;;;;;;;4930922;29;43710;-79
2022/10/09 02:34:32;;;;;;;;;;;;;;;;;;4928710;29;44847;-78
2022/10/09 02:36:59;;;;;;;;;;;;;;;;;;4931324;29;45822;-79
2022/10/09 02:39:26;;;;;;;;;;;;;;;;;;4931374;29;45104;-79
2022/10/09 02:41:53;;;;;;;;;;;;;;;;;;4931278;29;43682;-79
2022/10/09 02:44:20;;;;;;;;;;;;;;;;;;4930960;29;43425;-79
2022/10/09 02:46:47;;;;;;;;;;;;;;;;;;4931221;29;45062;-78
2022/10/09 02:49:14;;;;;;;;;;;;;;;;;;4931566;29;45108;-79
2022/10/09 02:51:41;;;;;;;;;;;;;;;;;;4930455;29;43679;-79
2022/10/09 02:54:08;;;;;;;;;;;;;;;;;;4930979;29;46048;-78
2022/10/09 02:56:35;;;;;;;;;;;;;;;;;;4930680;29;46464;-79
2022/10/09 02:59:04;;;;;;;;;;;;;;;;;;4928817;28;44617;-79
2022/10/09 03:01:31;;;;;;;;;;;;;;;;;;4930742;29;43955;-79
2022/10/09 03:03:58;;;;;;;;;;;;;;;;;;4929947;29;44448;-78
2022/10/09 03:06:25;;;;;;;;;;;;;;;;;;4930648;29;45783;-78
2022/10/09 03:08:52;;;;;;;;;;;;;;;;;;4930686;29;46647;-78
2022/10/09 03:11:19;;;;;;;;;;;;;;;;;;4929885;29;43489;-79
2022/10/09 03:13:46;;;;;;;;;;;;;;;;;;4930072;29;44767;-79
2022/10/09 03:16:13;;;;;;;;;;;;;;;;;;4930626;28;45601;-79
2022/10/09 03:18:40;;;;;;;;;;;;;;;;;;4934707;29;45060;-79
2022/10/09 03:21:07;;;;;;;;;;;;;;;;;;4934434;29;43832;-79
2022/10/09 03:23:34;;;;;;;;;;;;;;;;;;4935136;29;45929;-79
2022/10/09 03:26:01;;;;;;;;;;;;;;;;;;4934271;29;45885;-79
2022/10/09 03:28:28;;;;;;;;;;;;;;;;;;4934660;29;45011;-80
2022/10/09 03:30:55;;;;;;;;;;;;;;;;;;4934216;29;43510;-78
2022/10/09 03:33:24;;;;;;;;;;;;;;;;;;4934660;29;45027;-79
2022/10/09 03:35:51;;;;;;;;;;;;;;;;;;4934513;29;45819;-78
2022/10/09 03:38:18;;;;;;;;;;;;;;;;;;4934220;29;46238;-79
2022/10/09 03:40:45;;;;;;;;;;;;;;;;;;4934417;29;44682;-79
2022/10/09 03:43:12;;;;;;;;;;;;;;;;;;4934603;28;45900;-79
2022/10/09 03:45:39;;;;;;;;;;;;;;;;;;4935857;28;44217;-78
2022/10/09 03:48:06;;;;;;;;;;;;;;;;;;4933438;29;46140;-78
2022/10/09 03:50:33;;;;;;;;;;;;;;;;;;4932919;29;44769;-79
2022/10/09 03:53:00;;;;;;;;;;;;;;;;;;4934242;29;43614;-79
2022/10/09 03:55:27;;;;;;;;;;;;;;;;;;4933254;28;45476;-79
2022/10/09 03:57:54;;;;;;;;;;;;;;;;;;4933271;29;45157;-78
2022/10/09 04:00:21;;;;;;;;;;;;;;;;;;4934084;29;42040;-78
2022/10/09 04:02:48;;;;;;;;;;;;;;;;;;4933704;29;43991;-80
2022/10/09 04:05:15;;;;;;;;;;;;;;;;;;4933698;29;46212;-79
2022/10/09 04:07:42;;;;;;;;;;;;;;;;;;4934011;29;43600;-79
2022/10/09 04:10:09;;;;;;;;;;;;;;;;;;4934265;29;44609;-79
2022/10/09 04:12:36;;;;;;;;;;;;;;;;;;4933932;29;44740;-78
2022/10/09 04:15:03;;;;;;;;;;;;;;;;;;4932961;28;45778;-78
2022/10/09 04:17:30;;;;;;;;;;;;;;;;;;4933880;29;45356;-78
2022/10/09 04:19:57;;;;;;;;;;;;;;;;;;4933767;29;43697;-79
2022/10/09 04:22:24;;;;;;;;;;;;;;;;;;4933239;29;44839;-79
2022/10/09 04:24:51;;;;;;;;;;;;;;;;;;4933972;29;45815;-79
2022/10/09 04:27:18;;;;;;;;;;;;;;;;;;4933976;29;45140;-78
2022/10/09 04:29:44;;;;;;;;;;;;;;;;;;4933606;29;43596;-78
2022/10/09 04:32:11;;;;;;;;;;;;;;;;;;4933707;28;45822;-78
2022/10/09 04:34:38;;;;;;;;;;;;;;;;;;4932799;28;45102;-79
2022/10/09 04:37:05;;;;;;;;;;;;;;;;;;4933241;29;43981;-78
2022/10/09 04:39:32;;;;;;;;;;;;;;;;;;4932982;29;43499;-79
2022/10/09 04:41:59;;;;;;;;;;;;;;;;;;4933713;29;44778;-79
2022/10/09 04:44:26;;;;;;;;;;;;;;;;;;4933836;28;46886;-79
2022/10/09 04:46:53;;;;;;;;;;;;;;;;;;4932496;29;43981;-79
2022/10/09 04:49:20;;;;;;;;;;;;;;;;;;4934622;29;43827;-79
2022/10/09 04:51:47;;;;;;;;;;;;;;;;;;4933218;29;45817;-78
2022/10/09 04:54:14;;;;;;;;;;;;;;;;;;4932743;29;43499;-79
2022/10/09 04:56:41;;;;;;;;;;;;;;;;;;4931998;28;45290;-79
2022/10/09 04:59:08;;;;;;;;;;;;;;;;;;4932833;29;43876;-78
2022/10/09 05:01:35;;;;;;;;;;;;;;;;;;4933907;29;46240;-79
2022/10/09 05:04:04;;;;;;;;;;;;;;;;;;4933150;29;45681;-79
2022/10/09 05:06:31;;;;;;;;;;;;;;;;;;4933869;29;45099;-78
2022/10/09 05:08:58;;;;;;;;;;;;;;;;;;4933022;29;43708;-79
2022/10/09 05:11:25;;;;;;;;;;;;;;;;;;4932705;29;44751;-79
2022/10/09 05:13:52;;;;;;;;;;;;;;;;;;4933668;29;43621;-79
2022/10/09 05:16:19;;;;;;;;;;;;;;;;;;4933609;29;44787;-78
2022/10/09 05:18:46;;;;;;;;;;;;;;;;;;4931680;29;43420;-79
2022/10/09 05:21:13;;;;;;;;;;;;;;;;;;4934259;29;43751;-78
2022/10/09 05:23:40;;;;;;;;;;;;;;;;;;4933458;29;45774;-78
2022/10/09 05:26:07;;;;;;;;;;;;;;;;;;4934348;29;44141;-79
2022/10/09 05:28:34;;;;;;;;;;;;;;;;;;4931864;29;43661;-78
2022/10/09 05:31:01;;;;;;;;;;;;;;;;;;4934906;28;42608;-79
2022/10/09 05:33:28;;;;;;;;;;;;;;;;;;4934116;29;46085;-79
2022/10/09 05:35:55;;;;;;;;;;;;;;;;;;4934754;29;45080;-78
2022/10/09 05:38:22;;;;;;;;;;;;;;;;;;4933129;29;41996;-78
2022/10/09 05:40:49;;;;;;;;;;;;;;;;;;4932090;29;44745;-79
2022/10/09 05:43:16;;;;;;;;;;;;;;;;;;4934216;29;45825;-78
2022/10/09 05:45:43;;;;;;;;;;;;;;;;;;4934583;29;44955;-79
2022/10/09 05:48:10;;;;;;;;;;;;;;;;;;4934961;29;42573;-79
2022/10/09 05:50:37;;;;;;;;;;;;;;;;;;4933537;29;44782;-80
2022/10/09 05:53:04;;;;;;;;;;;;;;;;;;4933613;28;46178;-78
2022/10/09 05:55:31;;;;;;;;;;;;;;;;;;4933751;29;45034;-79
2022/10/09 05:57:58;;;;;;;;;;;;;;;;;;4934311;28;44019;-78
2022/10/09 06:00:25;;;;;;;;;;;;;;;;;;4933638;29;45792;-79
2022/10/09 06:02:52;;;;;;;;;;;;;;;;;;4933574;29;45812;-78
2022/10/09 06:05:19;;;;;;;;;;;;;;;;;;4933180;29;44817;-78
2022/10/09 06:07:46;;;;;;;;;;;;;;;;;;4932992;29;43700;-78
2022/10/09 06:10:13;;;;;;;;;;;;;;;;;;4933942;29;44846;-78
2022/10/09 06:12:40;;;;;;;;;;;;;;;;;;4933853;29;43461;-79
2022/10/09 06:15:07;;;;;;;;;;;;;;;;;;4933166;29;44898;-79
2022/10/09 06:17:34;;;;;;;;;;;;;;;;;;4933254;29;42407;-79
2022/10/09 06:20:01;;;;;;;;;;;;;;;;;;4932808;29;44863;-79
2022/10/09 06:22:28;;;;;;;;;;;;;;;;;;4933903;29;45910;-78
2022/10/09 06:24:55;;;;;;;;;;;;;;;;;;4932997;29;44974;-79
2022/10/09 06:27:22;;;;;;;;;;;;;;;;;;4933074;29;44003;-78
2022/10/09 06:29:49;;;;;;;;;;;;;;;;;;4933651;29;44897;-79
2022/10/09 06:32:16;;;;;;;;;;;;;;;;;;4932869;29;45820;-79
2022/10/09 06:34:43;;;;;;;;;;;;;;;;;;4932160;28;44897;-79
2022/10/09 06:37:10;;;;;;;;;;;;;;;;;;4933069;29;43571;-78
2022/10/09 06:39:37;;;;;;;;;;;;;;;;;;4933131;29;44774;-79
2022/10/09 06:42:04;;;;;;;;;;;;;;;;;;4932632;29;45710;-78
2022/10/09 06:44:31;;;;;;;;;;;;;;;;;;4933407;29;45409;-78
2022/10/09 06:46:58;;;;;;;;;;;;;;;;;;4933449;29;44013;-79
2022/10/09 06:49:25;;;;;;;;;;;;;;;;;;4934437;28;42605;-79
2022/10/09 06:51:52;;;;;;;;;;;;;;;;;;4935917;29;45414;-79
2022/10/09 06:54:18;;;;;;;;;;;;;;;;;;4937860;29;43623;-79
2022/10/09 06:56:45;;;;;;;;;;;;;;;;;;4937321;29;44840;-78
2022/10/09 06:59:12;;;;;;;;;;;;;;;;;;4936829;29;44400;-78
2022/10/09 07:01:39;;;;;;;;;;;;;;;;;;4935287;29;45714;-79
2022/10/09 07:04:06;;;;;;;;;;;;;;;;;;4937194;29;43787;-79
2022/10/09 07:06:33;;;;;;;;;;;;;;;;;;4938571;28;44118;-79
2022/10/09 07:09:00;;;;;;;;;;;;;;;;;;4936492;29;43572;-79
2022/10/09 07:11:27;;;;;;;;;;;;;;;;;;4936954;29;45808;-78
2022/10/09 07:13:54;;;;;;;;;;;;;;;;;;4937290;29;44999;-79
2022/10/09 07:16:21;;;;;;;;;;;;;;;;;;4937286;29;44742;-79
2022/10/09 07:18:48;;;;;;;;;;;;;;;;;;4937646;29;44656;-78
2022/10/09 07:21:15;;;;;;;;;;;;;;;;;;4934876;29;45621;-79
2022/10/09 07:23:42;;;;;;;;;;;;;;;;;;4936416;29;43771;-78
2022/10/09 07:26:09;;;;;;;;;;;;;;;;;;4937081;29;43702;-79
2022/10/09 07:28:36;;;;;;;;;;;;;;;;;;4936210;29;44883;-79
2022/10/09 07:31:03;;;;;;;;;;;;;;;;;;4937072;29;43371;-79
2022/10/09 07:33:30;;;;;;;;;;;;;;;;;;4936774;29;45023;-79
2022/10/09 07:35:57;;;;;;;;;;;;;;;;;;4935843;29;43744;-79
2022/10/09 07:38:24;;;;;;;;;;;;;;;;;;4937845;29;43778;-79
2022/10/09 07:40:51;;;;;;;;;;;;;;;;;;4936866;29;45782;-78
2022/10/09 07:43:18;;;;;;;;;;;;;;;;;;4938595;29;45004;-79
2022/10/09 07:45:45;;;;;;;;;;;;;;;;;;4935907;29;43918;-79
2022/10/09 07:48:12;;;;;;;;;;;;;;;;;;4935437;29;44804;-79
2022/10/09 07:50:39;;;;;;;;;;;;;;;;;;4934483;29;46768;-79
2022/10/09 07:53:07;;;;;;;;;;;;;;;;;;4934476;29;45101;-78
2022/10/09 07:55:34;;;;;;;;;;;;;;;;;;4934530;28;44800;-78
2022/10/09 07:58:01;;;;;;;;;;;;;;;;;;4934357;29;44732;-79
2022/10/09 08:00:28;;;;;;;;;;;;;;;;;;4933521;29;45808;-78
2022/10/09 08:02:55;;;;;;;;;;;;;;;;;;4931954;29;42216;-79
2022/10/09 08:05:22;;;;;;;;;;;;;;;;;;4933290;29;43423;-79
2022/10/09 08:07:49;;;;;;;;;;;;;;;;;;4935094;29;45848;-79
2022/10/09 08:10:18;;;;;;;;;;;;;;;;;;4933911;29;45435;-79
2022/10/09 08:12:45;;;;;;;;;;;;;;;;;;4935709;29;43517;-78
2022/10/09 08:15:12;;;;;;;;;;;;;;;;;;4935820;29;43483;-79
2022/10/09 08:17:39;;;;;;;;;;;;;;;;;;4932116;29;44776;-79
2022/10/09 08:20:06;;;;;;;;;;;;;;;;;;4933737;29;45693;-79
2022/10/09 08:22:33;;;;;;;;;;;;;;;;;;4930257;29;45284;-79
2022/10/09 08:25:00;;;;;;;;;;;;;;;;;;4933330;29;43732;-80
2022/10/09 08:27:27;;;;;;;;;;;;;;;;;;4934407;29;44833;-79
2022/10/09 08:29:54;;;;;;;;;;;;;;;;;;4935359;29;45741;-80
2022/10/09 08:32:21;;;;;;;;;;;;;;;;;;4934477;29;46121;-80
2022/10/09 08:34:48;;;;;;;;;;;;;;;;;;4932577;28;43707;-79
2022/10/09 08:37:15;;;;;;;;;;;;;;;;;;4934927;29;44871;-80
2022/10/09 08:39:42;;;;;;;;;;;;;;;;;;4932651;28;47528;-80
2022/10/09 08:42:09;;;;;;;;;;;;;;;;;;4935147;29;41862;-79
2022/10/09 08:44:36;;;;;;;;;;;;;;;;;;4936680;29;44762;-79
2022/10/09 08:47:03;;;;;;;;;;;;;;;;;;4937346;29;44765;-81
2022/10/09 08:49:30;;;;;;;;;;;;;;;;;;4937069;29;45761;-79
2022/10/09 08:51:57;;;;;;;;;;;;;;;;;;4935499;29;44070;-80
2022/10/09 08:54:24;;;;;;;;;;;;;;;;;;4934069;29;44036;-79
2022/10/09 08:56:51;;;;;;;;;;;;;;;;;;4933198;28;44780;-80
2022/10/09 08:59:18;;;;;;;;;;;;;;;;;;4935907;29;46010;-80
2022/10/09 09:01:45;;;;;;;;;;;;;;;;;;4935648;28;45105;-81
2022/10/09 09:04:12;;;;;;;;;;;;;;;;;;4937412;29;44387;-79
2022/10/09 09:06:39;;;;;;;;;;;;;;;;;;4933539;29;46291;-80
2022/10/09 09:09:06;;;;;;;;;;;;;;;;;;4941393;29;45868;-81
2022/10/09 09:11:32;;;;;;;;;;;;;;;;;;4946830;29;45017;-79
2022/10/09 09:13:59;;;;;;;;;;;;;;;;;;4939740;29;42565;-80
2022/10/09 09:16:26;;;;;;;;;;;;;;;;;;4940949;29;44638;-80
2022/10/09 09:18:53;;;;;;;;;;;;;;;;;;4946351;29;44027;-80
2022/10/09 09:21:20;;;;;;;;;;;;;;;;;;4944543;29;45119;-81
2022/10/09 09:23:47;;;;;;;;;;;;;;;;;;4941796;29;43918;-80
2022/10/09 09:26:14;;;;;;;;;;;;;;;;;;4937251;29;45652;-80
2022/10/09 09:28:41;;;;;;;;;;;;;;;;;;4936961;29;44746;-80
2022/10/09 09:31:08;;;;;;;;;;;;;;;;;;4938429;29;44610;-80
2022/10/09 09:33:35;;;;;;;;;;;;;;;;;;4933986;29;43601;-81
2022/10/09 09:36:05;;;;;;;;;;;;;;;;;;4936050;28;44602;-80
2022/10/09 09:38:32;;;;;;;;;;;;;;;;;;4935725;29;45716;-80
2022/10/09 09:40:59;;;;;;;;;;;;;;;;;;4932842;29;43727;-80
2022/10/09 09:43:26;;;;;;;;;;;;;;;;;;4933423;29;43726;-81
2022/10/09 09:45:53;;;;;;;;;;;;;;;;;;4934166;29;44756;-80
2022/10/09 09:48:20;;;;;;;;;;;;;;;;;;4934900;29;44144;-80
2022/10/09 09:50:47;;;;;;;;;;;;;;;;;;4931256;29;44409;-81
2022/10/09 09:53:30;;;;;;;;;;;;;;;;;;4930767;28;43897;-81
2022/10/09 09:55:57;;;;;;;;;;;;;;;;;;4928474;29;46387;-81
2022/10/09 09:58:24;;;;;;;;;;;;;;;;;;4934709;29;45593;-81
2022/10/09 10:00:51;;;;;;;;;;;;;;;;;;4929476;29;45112;-81
2022/10/09 10:03:18;;;;;;;;;;;;;;;;;;4936929;29;43352;-81
2022/10/09 10:05:45;;;;;;;;;;;;;;;;;;4937376;29;44869;-80
2022/10/09 10:08:12;;;;;;;;;;;;;;;;;;4939911;29;45789;-82
2022/10/09 10:10:39;;;;;;;;;;;;;;;;;;4938503;28;43935;-80
2022/10/09 10:13:06;;;;;;;;;;;;;;;;;;4940734;29;43301;-81
2022/10/09 10:15:33;;;;;;;;;;;;;;;;;;4940086;29;44845;-80
2022/10/09 10:18:00;;;;;;;;;;;;;;;;;;4934908;29;44863;-80
2022/10/09 10:20:27;;;;;;;;;;;;;;;;;;4929837;28;45111;-80
2022/10/09 10:22:54;;;;;;;;;;;;;;;;;;4934052;29;43626;-81
2022/10/09 10:25:21;;;;;;;;;;;;;;;;;;4933774;28;44747;-80
2022/10/09 10:27:49;;;;;;;;;;;;;;;;;;4936999;29;45841;-80
2022/10/09 10:30:16;;;;;;;;;;;;;;;;;;4936365;29;44602;-80
2022/10/09 10:32:43;;;;;;;;;;;;;;;;;;4937104;29;44703;-81
2022/10/09 10:35:10;;;;;;;;;;;;;;;;;;4936384;28;44863;-80
2022/10/09 10:37:37;;;;;;;;;;;;;;;;;;4935311;29;45784;-80
2022/10/09 10:40:04;;;;;;;;;;;;;;;;;;4936054;29;45065;-80
2022/10/09 10:42:31;;;;;;;;;;;;;;;;;;4937063;29;43692;-80
2022/10/09 10:44:59;;;;;;;;;;;;;;;;;;4936168;29;45878;-80
2022/10/09 10:47:26;;;;;;;;;;;;;;;;;;4940694;29;45836;-80
2022/10/09 10:49:53;;;;;;;;;;;;;;;;;;4939644;29;45349;-81
2022/10/09 10:52:20;;;;;;;;;;;;;;;;;;4938923;29;41660;-80
2022/10/09 10:54:47;;;;;;;;;;;;;;;;;;4934728;29;44774;-80
2022/10/09 10:57:14;;;;;;;;;;;;;;;;;;4933994;29;46349;-81
2022/10/09 10:59:41;;;;;;;;;;;;;;;;;;4938708;29;45438;-80
2022/10/09 11:02:08;;;;;;;;;;;;;;;;;;4937976;29;43559;-80
2022/10/09 11:04:35;;;;;;;;;;;;;;;;;;4935264;28;46147;-80
2022/10/09 11:07:02;;;;;;;;;;;;;;;;;;4936723;29;47270;-81
2022/10/09 11:09:29;;;;;;;;;;;;;;;;;;4936558;29;46149;-79
2022/10/09 11:11:56;;;;;;;;;;;;;;;;;;4934872;29;43596;-80
2022/10/09 11:14:23;;;;;;;;;;;;;;;;;;4932368;29;45149;-80
2022/10/09 11:16:50;;;;;;;;;;;;;;;;;;4930722;29;46220;-81
2022/10/09 11:19:17;;;;;;;;;;;;;;;;;;4936608;29;45093;-80
2022/10/09 11:21:44;;;;;;;;;;;;;;;;;;4938830;29;44769;-79
2022/10/09 11:24:11;;;;;;;;;;;;;;;;;;4937702;29;45028;-80
2022/10/09 11:26:38;;;;;;;;;;;;;;;;;;4938695;29;45747;-80
2022/10/09 11:29:05;;;;;;;;;;;;;;;;;;4939973;29;42652;-80
2022/10/09 11:31:32;;;;;;;;;;;;;;;;;;4938992;28;44022;-81
2022/10/09 11:33:59;;;;;;;;;;;;;;;;;;4945205;29;45054;-79
2022/10/09 11:36:26;;;;;;;;;;;;;;;;;;4938714;29;46173;-80
2022/10/09 11:38:53;;;;;;;;;;;;;;;;;;4939931;29;44671;-80
2022/10/09 11:41:20;;;;;;;;;;;;;;;;;;4940313;28;43680;-80
2022/10/09 11:43:47;;;;;;;;;;;;;;;;;;4937699;29;43968;-80
2022/10/09 11:46:14;;;;;;;;;;;;;;;;;;4941642;29;44327;-81
2022/10/09 11:48:41;;;;;;;;;;;;;;;;;;4941301;29;44765;-82
2022/10/09 11:51:08;;;;;;;;;;;;;;;;;;4937069;29;43601;-80
2022/10/09 11:53:35;;;;;;;;;;;;;;;;;;4940605;28;44932;-81
2022/10/09 11:56:02;;;;;;;;;;;;;;;;;;4951504;28;45736;-81
2022/10/09 11:58:29;;;;;;;;;;;;;;;;;;4946573;29;45014;-79
2022/10/09 12:00:56;;;;;;;;;;;;;;;;;;4946590;29;43312;-80
2022/10/09 12:03:23;;;;;;;;;;;;;;;;;;4945002;29;44551;-80
2022/10/09 12:05:50;;;;;;;;;;;;;;;;;;4943299;29;44238;-81
2022/10/09 12:08:17;;;;;;;;;;;;;;;;;;4946001;29;44840;-81
2022/10/09 12:10:45;;;;;;;;;;;;;;;;;;4948798;29;43252;-80
2022/10/09 12:13:12;;;;;;;;;;;;;;;;;;4945632;29;44762;-80
2022/10/09 12:15:39;;;;;;;;;;;;;;;;;;4947105;28;44381;-81
2022/10/09 12:18:09;;;;;;;;;;;;;;;;;;4947724;29;45111;-81
2022/10/09 12:20:38;;;;;;;;;;;;;;;;;;4949390;28;43417;-81
2022/10/09 12:23:05;;;;;;;;;;;;;;;;;;4945015;28;44723;-81
2022/10/09 12:25:51;;;;;;;;;;;;;;;;;;4946860;29;47818;-80
2022/10/09 12:28:18;;;;;;;;;;;;;;;;;;4947962;29;44341;-80
2022/10/09 12:30:45;;;;;;;;;;;;;;;;;;4947482;29;43355;-80
2022/10/09 12:33:13;;;;;;;;;;;;;;;;;;4942996;29;43523;-80
2022/10/09 12:35:42;;;;;;;;;;;;;;;;;;4944666;28;42779;-81
2022/10/09 12:38:09;;;;;;;;;;;;;;;;;;4946944;29;43478;-81
2022/10/09 12:40:36;;;;;;;;;;;;;;;;;;4947298;28;43209;-80
2022/10/09 12:43:03;;;;;;;;;;;;;;;;;;4946782;29;44728;-80
2022/10/09 12:45:30;;;;;;;;;;;;;;;;;;4947434;29;47945;-81
2022/10/09 12:47:57;;;;;;;;;;;;;;;;;;4946960;29;44216;-80
2022/10/09 12:50:24;;;;;;;;;;;;;;;;;;4946680;28;43355;-80
2022/10/09 12:52:51;;;;;;;;;;;;;;;;;;4947841;29;44448;-80
2022/10/09 12:55:18;;;;;;;;;;;;;;;;;;4941214;29;44534;-81
2022/10/09 12:57:47;;;;;;;;;;;;;;;;;;4947989;29;45408;-80
2022/10/09 13:00:14;;;;;;;;;;;;;;;;;;4948157;28;43638;-81
2022/10/09 13:02:41;;;;;;;;;;;;;;;;;;4951697;29;44180;-80
2022/10/09 13:05:08;;;;;;;;;;;;;;;;;;4950751;29;46742;-83
2022/10/09 13:07:35;;;;;;;;;;;;;;;;;;4953311;29;44718;-81
2022/10/09 13:10:02;;;;;;;;;;;;;;;;;;4950616;29;44741;-81
2022/10/09 13:12:29;;;;;;;;;;;;;;;;;;4949834;28;44762;-81
2022/10/09 13:14:57;;;;;;;;;;;;;;;;;;4950328;28;45023;-81
2022/10/09 13:17:24;;;;;;;;;;;;;;;;;;4948517;29;44670;-82
2022/10/09 13:19:53;;;;;;;;;;;;;;;;;;4949776;28;42996;-81
2022/10/09 13:22:20;;;;;;;;;;;;;;;;;;4950658;28;44519;-81
2022/10/09 13:24:47;;;;;;;;;;;;;;;;;;4951608;28;43870;-81
2022/10/09 13:27:14;;;;;;;;;;;;;;;;;;4948983;28;44798;-83
2022/10/09 13:29:44;;;;;;;;;;;;;;;;;;4952550;28;43353;-80
2022/10/09 13:32:11;;;;;;;;;;;;;;;;;;4952040;28;44040;-80
2022/10/09 13:34:40;;;;;;;;;;;;;;;;;;4952283;28;44603;-81
2022/10/09 13:37:09;;;;;;;;;;;;;;;;;;4944834;28;46116;-81
2022/10/09 13:39:36;;;;;;;;;;;;;;;;;;4951852;28;44077;-81
2022/10/09 13:42:03;;;;;;;;;;;;;;;;;;4950042;29;44447;-81
2022/10/09 13:44:31;;;;;;;;;;;;;;;;;;4946120;28;46071;-81
2022/10/09 13:47:06;;;;;;;;;;;;;;;;;;4949084;28;44652;-81
2022/10/09 13:49:33;;;;;;;;;;;;;;;;;;4953814;29;43686;-82
2022/10/09 13:52:00;;;;;;;;;;;;;;;;;;4951608;28;43740;-81
2022/10/09 13:54:30;;;;;;;;;;;;;;;;;;4952303;29;45818;-82
2022/10/09 13:56:57;;;;;;;;;;;;;;;;;;4952694;29;44894;-81
2022/10/09 13:59:24;;;;;;;;;;;;;;;;;;4951284;28;43318;-82
2022/10/09 14:01:52;;;;;;;;;;;;;;;;;;4950869;29;19938;-82
2022/10/09 14:04:19;;;;;;;;;;;;;;;;;;4951330;29;43639;-81
2022/10/09 14:06:46;;;;;;;;;;;;;;;;;;4949321;28;43225;-81
2022/10/09 14:09:13;;;;;;;;;;;;;;;;;;4945571;29;43709;-81
2022/10/09 14:11:40;;;;;;;;;;;;;;;;;;4950207;29;43173;-82
2022/10/09 14:14:07;;;;;;;;;;;;;;;;;;4950758;29;45252;-82
2022/10/09 14:16:37;;;;;;;;;;;;;;;;;;4948256;29;45136;-80
2022/10/09 14:19:04;;;;;;;;;;;;;;;;;;4953935;29;40843;-81
2022/10/09 14:21:31;;;;;;;;;;;;;;;;;;4951752;28;44801;-80
2022/10/09 14:23:58;;;;;;;;;;;;;;;;;;4951704;28;45087;-82
2022/10/09 14:26:25;;;;;;;;;;;;;;;;;;4949976;29;43990;-81
2022/10/09 14:28:52;;;;;;;;;;;;;;;;;;4950140;29;43703;-81
2022/10/09 14:31:20;;;;;;;;;;;;;;;;;;4950889;28;44460;-81
2022/10/09 14:33:49;;;;;;;;;;;;;;;;;;4951632;29;46485;-80
2022/10/09 14:36:19;;;;;;;;;;;;;;;;;;4949712;28;44837;-81
2022/10/09 14:38:46;;;;;;;;;;;;;;;;;;4952711;28;45119;-80
2022/10/09 14:41:18;;;;;;;;;;;;;;;;;;4951031;29;44743;-80
2022/10/09 14:43:45;;;;;;;;;;;;;;;;;;4940980;28;44225;-81
2022/10/09 14:46:14;;;;;;;;;;;;;;;;;;4948978;28;43756;-82
2022/10/09 14:48:44;;;;;;;;;;;;;;;;;;4950878;29;41763;-80
2022/10/09 14:51:11;;;;;;;;;;;;;;;;;;4945180;28;46783;-81
2022/10/09 14:53:41;;;;;;;;;;;;;;;;;;4952622;29;45643;-81
2022/10/09 14:56:11;;;;;;;;;;;;;;;;;;4950229;28;45385;-82
2022/10/09 14:58:44;;;;;;;;;;;;;;;;;;4951533;29;40936;-81
2022/10/09 15:01:11;;;;;;;;;;;;;;;;;;4946983;28;43255;-81
2022/10/09 15:03:38;;;;;;;;;;;;;;;;;;4953076;28;44557;-82
2022/10/09 15:06:05;;;;;;;;;;;;;;;;;;4952769;28;45771;-81
2022/10/09 15:08:36;;;;;;;;;;;;;;;;;;4953573;29;43477;-82
2022/10/09 15:11:05;;;;;;;;;;;;;;;;;;4952422;29;44745;-82
2022/10/09 15:13:32;;;;;;;;;;;;;;;;;;4956895;28;44621;-80
2022/10/09 15:16:04;;;;;;;;;;;;;;;;;;4956993;28;45018;-81
2022/10/09 15:18:34;;;;;;;;;;;;;;;;;;4956605;29;42727;-82
2022/10/09 15:21:02;;;;;;;;;;;;;;;;;;4955890;28;44775;-82
2022/10/09 15:23:29;;;;;;;;;;;;;;;;;;4949345;28;46426;-81
2022/10/09 15:25:56;;;;;;;;;;;;;;;;;;4949244;29;46658;-81
2022/10/09 15:28:27;;;;;;;;;;;;;;;;;;4955384;29;43671;-81
2022/10/09 15:30:57;;;;;;;;;;;;;;;;;;4950417;29;44205;-81
2022/10/09 15:33:27;;;;;;;;;;;;;;;;;;4951650;28;45009;-81
2022/10/09 15:35:57;;;;;;;;;;;;;;;;;;4954633;29;43732;-82
2022/10/09 15:38:27;;;;;;;;;;;;;;;;;;4953719;29;43214;-81
2022/10/09 15:41:14;;;;;;;;;;;;;;;;;;4956653;29;44845;-80
2022/10/09 15:43:40;;;;;;;;;;;;;;;;;;4955506;29;44213;-81
2022/10/09 15:46:08;;;;;;;;;;;;;;;;;;4956711;29;44916;-81
2022/10/09 15:48:34;;;;;;;;;;;;;;;;;;4957042;29;43737;-80
2022/10/09 15:51:01;;;;;;;;;;;;;;;;;;4955641;29;46130;-82
2022/10/09 15:53:28;;;;;;;;;;;;;;;;;;4957006;29;44812;-83
2022/10/09 15:55:56;;;;;;;;;;;;;;;;;;4957334;29;44667;-82
2022/10/09 15:58:23;;;;;;;;;;;;;;;;;;4956349;29;43300;-82
2022/10/09 16:00:50;;;;;;;;;;;;;;;;;;4956409;29;43167;-81
2022/10/09 16:03:17;;;;;;;;;;;;;;;;;;4953894;29;45732;-82
2022/10/09 16:05:45;;;;;;;;;;;;;;;;;;4954261;28;42772;-81
2022/10/09 16:08:14;;;;;;;;;;;;;;;;;;4951499;28;43584;-81
2022/10/09 16:10:41;;;;;;;;;;;;;;;;;;4950297;28;44859;-80
2022/10/09 16:13:13;;;;;;;;;;;;;;;;;;4949546;28;46697;-81
2022/10/09 16:15:40;;;;;;;;;;;;;;;;;;4950272;28;43163;-81
2022/10/09 16:18:07;;;;;;;;;;;;;;;;;;4943714;29;42595;-81
2022/10/09 16:20:34;;;;;;;;;;;;;;;;;;4949765;29;45874;-81
2022/10/09 16:23:01;;;;;;;;;;;;;;;;;;4953536;29;45989;-81
2022/10/09 16:25:29;;;;;;;;;;;;;;;;;;4955235;28;43945;-81
2022/10/09 16:27:56;;;;;;;;;;;;;;;;;;4950904;29;40306;-81
2022/10/09 16:30:24;;;;;;;;;;;;;;;;;;4955116;28;46696;-82
2022/10/09 16:32:51;;;;;;;;;;;;;;;;;;4952646;28;45868;-82
2022/10/09 16:35:18;;;;;;;;;;;;;;;;;;4953152;29;44321;-81
2022/10/09 16:37:47;;;;;;;;;;;;;;;;;;4956798;28;43252;-81
2022/10/09 16:40:14;;;;;;;;;;;;;;;;;;4956720;29;44206;-82
2022/10/09 16:42:41;;;;;;;;;;;;;;;;;;4956376;28;45141;-82
2022/10/09 16:45:08;;;;;;;;;;;;;;;;;;4957311;28;44652;-81